sensor_id;sensor_type;location;lat;lon;timestamp;P1;durP1;ratioP1;P2;durP2;ratioP2
12603;SDS011;6367;52.508;13.284;2022-07-25T00:01:13;3.07;;;2.27;;
12603;SDS011;6367;52.508;13.284;2022-07-25T00:03:39;2.00;;;1.90;;
12603;SDS011;6367;52.508;13.284;2022-07-25T00:06:04;2.23;;;2.13;;
12603;SDS011;6367;52.508;13.284;2022-07-25T00:08:30;1.80;;;1.70;;
12603;SDS011;6367;52.508;13.284;2022-07-25T00:10:56;2.03;;;1.90;;
12603;SDS011;6367;52.508;13.284;2022-07-25T00:13:21;1.90;;;1.80;;
12603;SDS011;6367;52.508;13.284;2022-07-25T00:15:47;1.97;;;1.83;;
12603;SDS011;6367;52.508;13.284;2022-07-25T00:18:13;2.33;;;2.17;;
12603;SDS011;6367;52.508;13.284;2022-07-25T00:20:38;2.33;;;2.13;;
12603;SDS011;6367;52.508;13.284;2022-07-25T00:23:04;2.10;;;2.00;;
12603;SDS011;6367;52.508;13.284;2022-07-25T00:25:29;2.20;;;2.00;;
12603;SDS011;6367;52.508;13.284;2022-07-25T00:27:55;1.93;;;1.83;;
12603;SDS011;6367;52.508;13.284;2022-07-25T00:30:20;1.93;;;1.83;;
12603;SDS011;6367;52.508;13.284;2022-07-25T00:32:46;2.17;;;2.07;;
12603;SDS011;6367;52.508;13.284;2022-07-25T00:35:12;2.30;;;2.03;;
12603;SDS011;6367;52.508;13.284;2022-07-25T00:37:37;1.73;;;1.63;;
12603;SDS011;6367;52.508;13.284;2022-07-25T00:40:03;2.10;;;2.00;;
12603;SDS011;6367;52.508;13.284;2022-07-25T00:42:29;2.30;;;2.10;;
12603;SDS011;6367;52.508;13.284;2022-07-25T00:44:54;1.90;;;1.80;;
12603;SDS011;6367;52.508;13.284;2022-07-25T00:47:20;2.00;;;1.90;;
12603;SDS011;6367;52.508;13.284;2022-07-25T00:49:45;2.10;;;2.00;;
12603;SDS011;6367;52.508;13.284;2022-07-25T00:52:11;2.20;;;2.10;;
12603;SDS011;6367;52.508;13.284;2022-07-25T00:54:37;2.93;;;2.00;;
12603;SDS011;6367;52.508;13.284;2022-07-25T00:57:03;2.37;;;2.10;;
12603;SDS011;6367;52.508;13.284;2022-07-25T00:59:29;1.90;;;1.80;;
12603;SDS011;6367;52.508;13.284;2022-07-25T01:01:54;2.13;;;1.93;;
12603;SDS011;6367;52.508;13.284;2022-07-25T01:04:20;1.87;;;1.77;;
12603;SDS011;6367;52.508;13.284;2022-07-25T01:06:45;2.23;;;2.00;;
12603;SDS011;6367;52.508;13.284;2022-07-25T01:09:11;2.33;;;1.90;;
12603;SDS011;6367;52.508;13.284;2022-07-25T01:11:37;2.33;;;2.00;;
12603;SDS011;6367;52.508;13.284;2022-07-25T01:14:03;3.07;;;2.20;;
12603;SDS011;6367;52.508;13.284;2022-07-25T01:16:29;2.10;;;1.97;;
12603;SDS011;6367;52.508;13.284;2022-07-25T01:18:55;2.43;;;2.23;;
12603;SDS011;6367;52.508;13.284;2022-07-25T01:21:21;2.00;;;1.90;;
12603;SDS011;6367;52.508;13.284;2022-07-25T01:23:48;2.03;;;1.83;;
12603;SDS011;6367;52.508;13.284;2022-07-25T01:26:14;2.93;;;1.97;;
12603;SDS011;6367;52.508;13.284;2022-07-25T01:28:40;2.40;;;2.20;;
12603;SDS011;6367;52.508;13.284;2022-07-25T01:31:05;2.10;;;2.00;;
12603;SDS011;6367;52.508;13.284;2022-07-25T01:33:31;2.23;;;2.13;;
12603;SDS011;6367;52.508;13.284;2022-07-25T01:35:57;2.30;;;2.13;;
12603;SDS011;6367;52.508;13.284;2022-07-25T01:38:22;2.03;;;1.93;;
12603;SDS011;6367;52.508;13.284;2022-07-25T01:40:48;1.97;;;1.80;;
12603;SDS011;6367;52.508;13.284;2022-07-25T01:43:15;1.83;;;1.73;;
12603;SDS011;6367;52.508;13.284;2022-07-25T01:45:40;2.10;;;2.00;;
12603;SDS011;6367;52.508;13.284;2022-07-25T01:48:06;2.07;;;1.97;;
12603;SDS011;6367;52.508;13.284;2022-07-25T01:50:32;1.70;;;1.60;;
12603;SDS011;6367;52.508;13.284;2022-07-25T01:52:57;2.23;;;1.70;;
12603;SDS011;6367;52.508;13.284;2022-07-25T01:55:23;3.20;;;2.10;;
12603;SDS011;6367;52.508;13.284;2022-07-25T01:57:48;2.63;;;1.87;;
12603;SDS011;6367;52.508;13.284;2022-07-25T02:00:14;2.13;;;2.03;;
12603;SDS011;6367;52.508;13.284;2022-07-25T02:02:41;2.57;;;2.37;;
12603;SDS011;6367;52.508;13.284;2022-07-25T02:05:08;2.40;;;2.10;;
12603;SDS011;6367;52.508;13.284;2022-07-25T02:07:35;2.30;;;2.20;;
12603;SDS011;6367;52.508;13.284;2022-07-25T02:10:01;2.20;;;2.10;;
12603;SDS011;6367;52.508;13.284;2022-07-25T02:12:28;2.23;;;2.10;;
12603;SDS011;6367;52.508;13.284;2022-07-25T02:14:54;2.03;;;1.93;;
12603;SDS011;6367;52.508;13.284;2022-07-25T02:17:19;4.70;;;2.40;;
12603;SDS011;6367;52.508;13.284;2022-07-25T02:19:45;2.33;;;2.20;;
12603;SDS011;6367;52.508;13.284;2022-07-25T02:22:11;1.80;;;1.70;;
12603;SDS011;6367;52.508;13.284;2022-07-25T02:24:36;2.20;;;2.00;;
12603;SDS011;6367;52.508;13.284;2022-07-25T02:27:03;2.10;;;2.00;;
12603;SDS011;6367;52.508;13.284;2022-07-25T02:29:29;2.30;;;2.20;;
12603;SDS011;6367;52.508;13.284;2022-07-25T02:31:54;2.13;;;1.93;;
12603;SDS011;6367;52.508;13.284;2022-07-25T02:34:20;2.27;;;2.17;;
12603;SDS011;6367;52.508;13.284;2022-07-25T02:36:46;2.00;;;1.90;;
12603;SDS011;6367;52.508;13.284;2022-07-25T02:39:11;2.13;;;1.97;;
12603;SDS011;6367;52.508;13.284;2022-07-25T02:41:37;2.10;;;1.93;;
12603;SDS011;6367;52.508;13.284;2022-07-25T02:44:03;2.40;;;2.20;;
12603;SDS011;6367;52.508;13.284;2022-07-25T02:46:30;2.40;;;2.30;;
12603;SDS011;6367;52.508;13.284;2022-07-25T02:48:56;2.47;;;2.27;;
12603;SDS011;6367;52.508;13.284;2022-07-25T02:51:21;2.53;;;2.33;;
12603;SDS011;6367;52.508;13.284;2022-07-25T02:53:47;2.37;;;2.27;;
12603;SDS011;6367;52.508;13.284;2022-07-25T02:56:13;4.00;;;2.40;;
12603;SDS011;6367;52.508;13.284;2022-07-25T02:58:39;2.20;;;2.10;;
12603;SDS011;6367;52.508;13.284;2022-07-25T03:01:05;2.30;;;2.10;;
12603;SDS011;6367;52.508;13.284;2022-07-25T03:03:30;1.90;;;1.80;;
12603;SDS011;6367;52.508;13.284;2022-07-25T03:05:56;1.80;;;1.70;;
12603;SDS011;6367;52.508;13.284;2022-07-25T03:08:21;4.03;;;2.07;;
12603;SDS011;6367;52.508;13.284;2022-07-25T03:10:47;2.30;;;2.10;;
12603;SDS011;6367;52.508;13.284;2022-07-25T03:13:12;2.03;;;1.93;;
12603;SDS011;6367;52.508;13.284;2022-07-25T03:15:38;1.87;;;1.60;;
12603;SDS011;6367;52.508;13.284;2022-07-25T03:18:04;2.50;;;2.30;;
12603;SDS011;6367;52.508;13.284;2022-07-25T03:20:29;1.80;;;1.70;;
12603;SDS011;6367;52.508;13.284;2022-07-25T03:22:55;2.47;;;2.27;;
12603;SDS011;6367;52.508;13.284;2022-07-25T03:25:21;2.73;;;2.53;;
12603;SDS011;6367;52.508;13.284;2022-07-25T03:27:46;2.40;;;2.20;;
12603;SDS011;6367;52.508;13.284;2022-07-25T03:30:12;4.00;;;2.17;;
12603;SDS011;6367;52.508;13.284;2022-07-25T03:32:37;2.23;;;2.13;;
12603;SDS011;6367;52.508;13.284;2022-07-25T03:35:04;2.23;;;2.00;;
12603;SDS011;6367;52.508;13.284;2022-07-25T03:37:30;2.00;;;1.90;;
12603;SDS011;6367;52.508;13.284;2022-07-25T03:39:56;1.93;;;1.60;;
12603;SDS011;6367;52.508;13.284;2022-07-25T03:42:21;2.40;;;2.20;;
12603;SDS011;6367;52.508;13.284;2022-07-25T03:44:48;2.40;;;1.87;;
12603;SDS011;6367;52.508;13.284;2022-07-25T03:47:13;2.60;;;2.40;;
12603;SDS011;6367;52.508;13.284;2022-07-25T03:49:39;2.10;;;2.00;;
12603;SDS011;6367;52.508;13.284;2022-07-25T03:52:05;2.40;;;2.20;;
12603;SDS011;6367;52.508;13.284;2022-07-25T03:54:30;1.90;;;1.80;;
12603;SDS011;6367;52.508;13.284;2022-07-25T03:56:56;1.80;;;1.70;;
12603;SDS011;6367;52.508;13.284;2022-07-25T03:59:21;1.80;;;1.70;;
12603;SDS011;6367;52.508;13.284;2022-07-25T04:01:47;1.93;;;1.83;;
12603;SDS011;6367;52.508;13.284;2022-07-25T04:04:14;2.17;;;2.07;;
12603;SDS011;6367;52.508;13.284;2022-07-25T04:06:40;2.27;;;1.70;;
12603;SDS011;6367;52.508;13.284;2022-07-25T04:09:06;2.87;;;2.60;;
12603;SDS011;6367;52.508;13.284;2022-07-25T04:11:33;2.40;;;2.30;;
12603;SDS011;6367;52.508;13.284;2022-07-25T04:13:59;2.67;;;2.47;;
12603;SDS011;6367;52.508;13.284;2022-07-25T04:16:26;2.10;;;1.90;;
12603;SDS011;6367;52.508;13.284;2022-07-25T04:18:53;2.30;;;2.10;;
12603;SDS011;6367;52.508;13.284;2022-07-25T04:21:19;2.90;;;2.73;;
12603;SDS011;6367;52.508;13.284;2022-07-25T04:23:45;1.93;;;1.83;;
12603;SDS011;6367;52.508;13.284;2022-07-25T04:26:11;2.50;;;2.30;;
12603;SDS011;6367;52.508;13.284;2022-07-25T04:28:36;3.63;;;2.00;;
12603;SDS011;6367;52.508;13.284;2022-07-25T04:31:02;2.10;;;2.00;;
12603;SDS011;6367;52.508;13.284;2022-07-25T04:33:27;2.40;;;2.20;;
12603;SDS011;6367;52.508;13.284;2022-07-25T04:35:53;2.40;;;2.20;;
12603;SDS011;6367;52.508;13.284;2022-07-25T04:38:19;2.27;;;2.17;;
12603;SDS011;6367;52.508;13.284;2022-07-25T04:40:44;2.20;;;2.10;;
12603;SDS011;6367;52.508;13.284;2022-07-25T04:43:10;2.87;;;2.20;;
12603;SDS011;6367;52.508;13.284;2022-07-25T04:45:36;2.80;;;2.60;;
12603;SDS011;6367;52.508;13.284;2022-07-25T04:48:02;2.87;;;2.03;;
12603;SDS011;6367;52.508;13.284;2022-07-25T04:50:28;2.40;;;2.20;;
12603;SDS011;6367;52.508;13.284;2022-07-25T04:52:54;2.90;;;2.70;;
12603;SDS011;6367;52.508;13.284;2022-07-25T04:55:19;4.00;;;2.17;;
12603;SDS011;6367;52.508;13.284;2022-07-25T04:57:45;2.27;;;2.17;;
12603;SDS011;6367;52.508;13.284;2022-07-25T05:00:11;2.70;;;2.50;;
12603;SDS011;6367;52.508;13.284;2022-07-25T05:02:38;3.27;;;2.30;;
12603;SDS011;6367;52.508;13.284;2022-07-25T05:05:04;2.63;;;2.43;;
12603;SDS011;6367;52.508;13.284;2022-07-25T05:07:30;2.80;;;2.60;;
12603;SDS011;6367;52.508;13.284;2022-07-25T05:09:55;2.10;;;1.90;;
12603;SDS011;6367;52.508;13.284;2022-07-25T05:12:21;2.90;;;2.70;;
12603;SDS011;6367;52.508;13.284;2022-07-25T05:14:46;2.87;;;2.67;;
12603;SDS011;6367;52.508;13.284;2022-07-25T05:17:12;2.73;;;2.53;;
12603;SDS011;6367;52.508;13.284;2022-07-25T05:19:38;2.70;;;2.50;;
12603;SDS011;6367;52.508;13.284;2022-07-25T05:22:03;2.70;;;2.50;;
12603;SDS011;6367;52.508;13.284;2022-07-25T05:24:32;3.37;;;3.07;;
12603;SDS011;6367;52.508;13.284;2022-07-25T05:26:59;3.37;;;2.83;;
12603;SDS011;6367;52.508;13.284;2022-07-25T05:29:24;4.00;;;2.83;;
12603;SDS011;6367;52.508;13.284;2022-07-25T05:31:51;4.33;;;2.77;;
12603;SDS011;6367;52.508;13.284;2022-07-25T05:34:16;3.70;;;3.37;;
12603;SDS011;6367;52.508;13.284;2022-07-25T05:36:42;2.83;;;2.63;;
12603;SDS011;6367;52.508;13.284;2022-07-25T05:39:08;3.13;;;2.70;;
12603;SDS011;6367;52.508;13.284;2022-07-25T05:41:35;4.03;;;3.70;;
12603;SDS011;6367;52.508;13.284;2022-07-25T05:44:00;3.90;;;3.30;;
12603;SDS011;6367;52.508;13.284;2022-07-25T05:46:26;4.73;;;3.40;;
12603;SDS011;6367;52.508;13.284;2022-07-25T05:48:52;3.43;;;3.10;;
12603;SDS011;6367;52.508;13.284;2022-07-25T05:51:17;3.63;;;3.33;;
12603;SDS011;6367;52.508;13.284;2022-07-25T05:53:43;6.07;;;3.50;;
12603;SDS011;6367;52.508;13.284;2022-07-25T05:56:08;3.67;;;3.37;;
12603;SDS011;6367;52.508;13.284;2022-07-25T05:58:34;4.37;;;3.73;;
12603;SDS011;6367;52.508;13.284;2022-07-25T06:01:06;4.10;;;3.70;;
12603;SDS011;6367;52.508;13.284;2022-07-25T06:03:32;4.70;;;3.80;;
12603;SDS011;6367;52.508;13.284;2022-07-25T06:05:58;3.80;;;3.50;;
12603;SDS011;6367;52.508;13.284;2022-07-25T06:08:24;3.87;;;3.50;;
12603;SDS011;6367;52.508;13.284;2022-07-25T06:10:55;4.60;;;3.77;;
12603;SDS011;6367;52.508;13.284;2022-07-25T06:13:22;5.40;;;4.20;;
12603;SDS011;6367;52.508;13.284;2022-07-25T06:15:48;4.53;;;4.13;;
12603;SDS011;6367;52.508;13.284;2022-07-25T06:18:14;4.40;;;4.07;;
12603;SDS011;6367;52.508;13.284;2022-07-25T06:20:39;3.97;;;3.67;;
12603;SDS011;6367;52.508;13.284;2022-07-25T06:23:05;3.77;;;3.47;;
12603;SDS011;6367;52.508;13.284;2022-07-25T06:25:31;4.83;;;4.43;;
12603;SDS011;6367;52.508;13.284;2022-07-25T06:27:56;6.47;;;4.47;;
12603;SDS011;6367;52.508;13.284;2022-07-25T06:30:22;3.97;;;3.63;;
12603;SDS011;6367;52.508;13.284;2022-07-25T06:32:48;4.30;;;3.90;;
12603;SDS011;6367;52.508;13.284;2022-07-25T06:35:14;4.50;;;4.10;;
12603;SDS011;6367;52.508;13.284;2022-07-25T06:37:40;4.37;;;3.97;;
12603;SDS011;6367;52.508;13.284;2022-07-25T06:40:06;4.50;;;3.43;;
12603;SDS011;6367;52.508;13.284;2022-07-25T06:42:36;5.00;;;4.30;;
12603;SDS011;6367;52.508;13.284;2022-07-25T06:45:03;4.10;;;3.87;;
12603;SDS011;6367;52.508;13.284;2022-07-25T06:47:30;5.13;;;4.03;;
12603;SDS011;6367;52.508;13.284;2022-07-25T06:49:55;4.60;;;4.20;;
12603;SDS011;6367;52.508;13.284;2022-07-25T06:52:21;4.80;;;4.40;;
12603;SDS011;6367;52.508;13.284;2022-07-25T06:54:47;4.40;;;4.00;;
12603;SDS011;6367;52.508;13.284;2022-07-25T06:57:12;6.80;;;4.50;;
12603;SDS011;6367;52.508;13.284;2022-07-25T06:59:38;5.07;;;4.13;;
12603;SDS011;6367;52.508;13.284;2022-07-25T07:02:03;5.67;;;4.13;;
12603;SDS011;6367;52.508;13.284;2022-07-25T07:04:29;4.50;;;4.20;;
12603;SDS011;6367;52.508;13.284;2022-07-25T07:06:55;4.63;;;4.10;;
12603;SDS011;6367;52.508;13.284;2022-07-25T07:09:20;4.97;;;4.57;;
12603;SDS011;6367;52.508;13.284;2022-07-25T07:11:46;6.27;;;4.77;;
12603;SDS011;6367;52.508;13.284;2022-07-25T07:14:11;6.00;;;5.20;;
12603;SDS011;6367;52.508;13.284;2022-07-25T07:16:37;4.70;;;4.30;;
12603;SDS011;6367;52.508;13.284;2022-07-25T07:19:05;5.60;;;5.10;;
12603;SDS011;6367;52.508;13.284;2022-07-25T07:21:30;5.30;;;4.80;;
12603;SDS011;6367;52.508;13.284;2022-07-25T07:23:56;5.40;;;5.00;;
12603;SDS011;6367;52.508;13.284;2022-07-25T07:26:21;5.83;;;4.43;;
12603;SDS011;6367;52.508;13.284;2022-07-25T07:28:47;6.53;;;4.90;;
12603;SDS011;6367;52.508;13.284;2022-07-25T07:31:14;5.33;;;4.83;;
12603;SDS011;6367;52.508;13.284;2022-07-25T07:33:41;5.37;;;4.90;;
12603;SDS011;6367;52.508;13.284;2022-07-25T07:36:07;6.10;;;5.57;;
12603;SDS011;6367;52.508;13.284;2022-07-25T07:38:32;5.07;;;4.67;;
12603;SDS011;6367;52.508;13.284;2022-07-25T07:40:59;4.90;;;4.60;;
12603;SDS011;6367;52.508;13.284;2022-07-25T07:43:25;5.80;;;5.37;;
12603;SDS011;6367;52.508;13.284;2022-07-25T07:45:51;6.10;;;4.67;;
12603;SDS011;6367;52.508;13.284;2022-07-25T07:48:16;5.67;;;5.23;;
12603;SDS011;6367;52.508;13.284;2022-07-25T07:50:42;5.77;;;5.30;;
12603;SDS011;6367;52.508;13.284;2022-07-25T07:53:07;5.20;;;4.70;;
12603;SDS011;6367;52.508;13.284;2022-07-25T07:55:33;6.77;;;6.07;;
12603;SDS011;6367;52.508;13.284;2022-07-25T07:58:16;5.13;;;4.70;;
12603;SDS011;6367;52.508;13.284;2022-07-25T08:00:44;5.30;;;4.80;;
12603;SDS011;6367;52.508;13.284;2022-07-25T08:03:16;6.97;;;5.23;;
12603;SDS011;6367;52.508;13.284;2022-07-25T08:05:43;6.23;;;5.63;;
12603;SDS011;6367;52.508;13.284;2022-07-25T08:08:10;6.70;;;6.13;;
12603;SDS011;6367;52.508;13.284;2022-07-25T08:10:38;6.87;;;6.37;;
12603;SDS011;6367;52.508;13.284;2022-07-25T08:13:13;6.47;;;5.97;;
12603;SDS011;6367;52.508;13.284;2022-07-25T08:15:44;6.23;;;5.83;;
12603;SDS011;6367;52.508;13.284;2022-07-25T08:18:11;7.10;;;6.47;;
12603;SDS011;6367;52.508;13.284;2022-07-25T08:20:37;6.60;;;6.20;;
12603;SDS011;6367;52.508;13.284;2022-07-25T08:23:03;7.10;;;6.40;;
12603;SDS011;6367;52.508;13.284;2022-07-25T08:25:29;7.30;;;6.70;;
12603;SDS011;6367;52.508;13.284;2022-07-25T08:27:55;7.63;;;6.57;;
12603;SDS011;6367;52.508;13.284;2022-07-25T08:30:21;6.83;;;6.33;;
12603;SDS011;6367;52.508;13.284;2022-07-25T08:35:17;8.03;;;7.37;;
12603;SDS011;6367;52.508;13.284;2022-07-25T08:37:44;7.20;;;6.60;;
12603;SDS011;6367;52.508;13.284;2022-07-25T08:40:13;7.50;;;6.80;;
12603;SDS011;6367;52.508;13.284;2022-07-25T08:42:41;7.23;;;6.63;;
12603;SDS011;6367;52.508;13.284;2022-07-25T08:45:07;7.50;;;6.80;;
12603;SDS011;6367;52.508;13.284;2022-07-25T08:47:34;7.40;;;6.70;;
12603;SDS011;6367;52.508;13.284;2022-07-25T08:50:04;7.63;;;7.03;;
12603;SDS011;6367;52.508;13.284;2022-07-25T08:52:32;7.87;;;7.27;;
12603;SDS011;6367;52.508;13.284;2022-07-25T08:55:05;7.90;;;7.30;;
12603;SDS011;6367;52.508;13.284;2022-07-25T08:57:33;7.70;;;7.20;;
12603;SDS011;6367;52.508;13.284;2022-07-25T09:00:00;7.50;;;6.93;;
12603;SDS011;6367;52.508;13.284;2022-07-25T09:02:26;6.83;;;6.40;;
12603;SDS011;6367;52.508;13.284;2022-07-25T09:04:53;7.20;;;6.70;;
12603;SDS011;6367;52.508;13.284;2022-07-25T09:10:18;7.97;;;6.97;;
12603;SDS011;6367;52.508;13.284;2022-07-25T09:15:30;7.97;;;7.37;;
12603;SDS011;6367;52.508;13.284;2022-07-25T09:17:57;7.10;;;6.60;;
12603;SDS011;6367;52.508;13.284;2022-07-25T09:20:35;8.40;;;7.57;;
12603;SDS011;6367;52.508;13.284;2022-07-25T09:23:09;8.60;;;7.80;;
12603;SDS011;6367;52.508;13.284;2022-07-25T09:25:36;7.60;;;7.00;;
12603;SDS011;6367;52.508;13.284;2022-07-25T09:28:38;8.43;;;7.80;;
12603;SDS011;6367;52.508;13.284;2022-07-25T09:31:02;7.10;;;6.60;;
12603;SDS011;6367;52.508;13.284;2022-07-25T09:33:28;7.87;;;7.10;;
12603;SDS011;6367;52.508;13.284;2022-07-25T09:35:54;7.70;;;7.20;;
12603;SDS011;6367;52.508;13.284;2022-07-25T09:38:20;8.20;;;7.50;;
12603;SDS011;6367;52.508;13.284;2022-07-25T09:43:21;8.47;;;7.77;;
12603;SDS011;6367;52.508;13.284;2022-07-25T09:45:48;8.57;;;7.97;;
12603;SDS011;6367;52.508;13.284;2022-07-25T09:48:16;8.03;;;7.43;;
12603;SDS011;6367;52.508;13.284;2022-07-25T09:50:43;8.53;;;7.90;;
12603;SDS011;6367;52.508;13.284;2022-07-25T09:53:09;8.33;;;7.73;;
12603;SDS011;6367;52.508;13.284;2022-07-25T09:55:36;9.60;;;9.00;;
12603;SDS011;6367;52.508;13.284;2022-07-25T09:58:01;8.50;;;7.87;;
12603;SDS011;6367;52.508;13.284;2022-07-25T10:00:27;9.10;;;8.40;;
12603;SDS011;6367;52.508;13.284;2022-07-25T10:03:09;9.33;;;8.43;;
12603;SDS011;6367;52.508;13.284;2022-07-25T10:08:34;8.67;;;7.93;;
12603;SDS011;6367;52.508;13.284;2022-07-25T10:11:01;8.57;;;8.07;;
12603;SDS011;6367;52.508;13.284;2022-07-25T10:13:33;8.77;;;8.07;;
12603;SDS011;6367;52.508;13.284;2022-07-25T10:16:00;8.80;;;8.07;;
12603;SDS011;6367;52.508;13.284;2022-07-25T10:18:27;9.13;;;8.43;;
12603;SDS011;6367;52.508;13.284;2022-07-25T10:20:55;8.50;;;7.90;;
12603;SDS011;6367;52.508;13.284;2022-07-25T10:23:35;9.03;;;8.33;;
12603;SDS011;6367;52.508;13.284;2022-07-25T10:26:02;9.00;;;8.30;;
12603;SDS011;6367;52.508;13.284;2022-07-25T10:28:48;8.77;;;8.17;;
12603;SDS011;6367;52.508;13.284;2022-07-25T10:31:32;9.33;;;8.70;;
12603;SDS011;6367;52.508;13.284;2022-07-25T10:34:07;9.00;;;8.40;;
12603;SDS011;6367;52.508;13.284;2022-07-25T10:39:11;9.70;;;8.90;;
12603;SDS011;6367;52.508;13.284;2022-07-25T10:41:39;10.03;;;9.20;;
12603;SDS011;6367;52.508;13.284;2022-07-25T10:44:11;10.13;;;9.33;;
12603;SDS011;6367;52.508;13.284;2022-07-25T10:46:37;8.63;;;8.03;;
12603;SDS011;6367;52.508;13.284;2022-07-25T10:49:04;11.73;;;10.93;;
12603;SDS011;6367;52.508;13.284;2022-07-25T10:51:31;9.00;;;8.30;;
12603;SDS011;6367;52.508;13.284;2022-07-25T10:53:59;9.40;;;8.80;;
12603;SDS011;6367;52.508;13.284;2022-07-25T10:56:35;8.93;;;8.23;;
12603;SDS011;6367;52.508;13.284;2022-07-25T10:59:01;8.50;;;7.80;;
12603;SDS011;6367;52.508;13.284;2022-07-25T11:01:29;9.97;;;9.27;;
12603;SDS011;6367;52.508;13.284;2022-07-25T11:03:59;9.10;;;8.40;;
12603;SDS011;6367;52.508;13.284;2022-07-25T11:06:30;9.57;;;8.77;;
12603;SDS011;6367;52.508;13.284;2022-07-25T11:08:58;10.17;;;9.10;;
12603;SDS011;6367;52.508;13.284;2022-07-25T11:11:35;9.43;;;8.60;;
12603;SDS011;6367;52.508;13.284;2022-07-25T11:14:02;9.73;;;8.73;;
12603;SDS011;6367;52.508;13.284;2022-07-25T11:16:29;9.17;;;8.47;;
12603;SDS011;6367;52.508;13.284;2022-07-25T11:18:55;9.27;;;8.47;;
12603;SDS011;6367;52.508;13.284;2022-07-25T11:21:20;9.13;;;8.30;;
12603;SDS011;6367;52.508;13.284;2022-07-25T11:23:49;8.80;;;8.20;;
12603;SDS011;6367;52.508;13.284;2022-07-25T11:26:16;8.87;;;8.20;;
12603;SDS011;6367;52.508;13.284;2022-07-25T11:28:43;8.60;;;8.10;;
12603;SDS011;6367;52.508;13.284;2022-07-25T11:31:10;8.60;;;8.00;;
12603;SDS011;6367;52.508;13.284;2022-07-25T11:33:38;8.57;;;7.87;;
12603;SDS011;6367;52.508;13.284;2022-07-25T11:36:05;8.53;;;7.83;;
12603;SDS011;6367;52.508;13.284;2022-07-25T11:38:32;8.37;;;7.80;;
12603;SDS011;6367;52.508;13.284;2022-07-25T11:40:59;8.10;;;7.60;;
12603;SDS011;6367;52.508;13.284;2022-07-25T11:43:24;8.13;;;7.63;;
12603;SDS011;6367;52.508;13.284;2022-07-25T11:48:30;8.07;;;7.47;;
12603;SDS011;6367;52.508;13.284;2022-07-25T11:51:12;7.80;;;7.20;;
12603;SDS011;6367;52.508;13.284;2022-07-25T11:53:45;9.03;;;8.23;;
12603;SDS011;6367;52.508;13.284;2022-07-25T11:56:20;8.93;;;8.20;;
12603;SDS011;6367;52.508;13.284;2022-07-25T11:58:57;8.73;;;8.13;;
12603;SDS011;6367;52.508;13.284;2022-07-25T12:01:24;8.43;;;7.67;;
12603;SDS011;6367;52.508;13.284;2022-07-25T12:04:06;8.67;;;8.07;;
12603;SDS011;6367;52.508;13.284;2022-07-25T12:06:36;8.27;;;7.47;;
12603;SDS011;6367;52.508;13.284;2022-07-25T12:09:11;8.17;;;7.50;;
12603;SDS011;6367;52.508;13.284;2022-07-25T12:11:41;7.80;;;7.30;;
12603;SDS011;6367;52.508;13.284;2022-07-25T12:14:08;8.27;;;7.57;;
12603;SDS011;6367;52.508;13.284;2022-07-25T12:16:34;8.40;;;7.83;;
12603;SDS011;6367;52.508;13.284;2022-07-25T12:19:00;8.23;;;7.73;;
12603;SDS011;6367;52.508;13.284;2022-07-25T12:21:26;10.60;;;8.10;;
12603;SDS011;6367;52.508;13.284;2022-07-25T12:23:52;8.10;;;7.50;;
12603;SDS011;6367;52.508;13.284;2022-07-25T12:26:18;9.20;;;8.30;;
12603;SDS011;6367;52.508;13.284;2022-07-25T12:28:44;8.47;;;7.87;;
12603;SDS011;6367;52.508;13.284;2022-07-25T12:31:09;8.73;;;8.13;;
12603;SDS011;6367;52.508;13.284;2022-07-25T12:33:35;9.07;;;8.27;;
12603;SDS011;6367;52.508;13.284;2022-07-25T12:36:01;8.30;;;7.70;;
12603;SDS011;6367;52.508;13.284;2022-07-25T12:38:27;8.97;;;8.27;;
12603;SDS011;6367;52.508;13.284;2022-07-25T12:40:53;8.33;;;7.77;;
12603;SDS011;6367;52.508;13.284;2022-07-25T12:43:19;9.30;;;8.70;;
12603;SDS011;6367;52.508;13.284;2022-07-25T12:45:45;8.00;;;7.50;;
12603;SDS011;6367;52.508;13.284;2022-07-25T12:48:11;9.13;;;8.53;;
12603;SDS011;6367;52.508;13.284;2022-07-25T12:50:38;9.27;;;8.53;;
12603;SDS011;6367;52.508;13.284;2022-07-25T12:53:04;9.60;;;8.80;;
12603;SDS011;6367;52.508;13.284;2022-07-25T12:55:30;9.57;;;8.87;;
12603;SDS011;6367;52.508;13.284;2022-07-25T12:57:56;8.37;;;7.77;;
12603;SDS011;6367;52.508;13.284;2022-07-25T13:00:22;8.30;;;7.70;;
12603;SDS011;6367;52.508;13.284;2022-07-25T13:02:48;9.10;;;8.47;;
12603;SDS011;6367;52.508;13.284;2022-07-25T13:05:16;9.10;;;8.50;;
12603;SDS011;6367;52.508;13.284;2022-07-25T13:07:42;8.50;;;7.80;;
12603;SDS011;6367;52.508;13.284;2022-07-25T13:10:08;9.20;;;8.60;;
12603;SDS011;6367;52.508;13.284;2022-07-25T13:12:34;8.87;;;8.17;;
12603;SDS011;6367;52.508;13.284;2022-07-25T13:15:00;8.00;;;7.40;;
12603;SDS011;6367;52.508;13.284;2022-07-25T13:17:25;8.03;;;7.43;;
12603;SDS011;6367;52.508;13.284;2022-07-25T13:19:51;8.90;;;8.10;;
12603;SDS011;6367;52.508;13.284;2022-07-25T13:22:17;9.97;;;9.27;;
12603;SDS011;6367;52.508;13.284;2022-07-25T13:24:42;8.40;;;7.80;;
12603;SDS011;6367;52.508;13.284;2022-07-25T13:27:08;8.50;;;7.90;;
12603;SDS011;6367;52.508;13.284;2022-07-25T13:29:34;9.57;;;8.87;;
12603;SDS011;6367;52.508;13.284;2022-07-25T13:32:00;8.93;;;8.13;;
12603;SDS011;6367;52.508;13.284;2022-07-25T13:34:26;9.00;;;8.40;;
12603;SDS011;6367;52.508;13.284;2022-07-25T13:36:51;8.90;;;8.20;;
12603;SDS011;6367;52.508;13.284;2022-07-25T13:39:17;8.80;;;8.10;;
12603;SDS011;6367;52.508;13.284;2022-07-25T13:41:46;8.20;;;7.50;;
12603;SDS011;6367;52.508;13.284;2022-07-25T13:44:12;8.47;;;7.87;;
12603;SDS011;6367;52.508;13.284;2022-07-25T13:46:39;8.17;;;7.60;;
12603;SDS011;6367;52.508;13.284;2022-07-25T13:49:05;8.23;;;7.63;;
12603;SDS011;6367;52.508;13.284;2022-07-25T13:51:30;7.93;;;7.33;;
12603;SDS011;6367;52.508;13.284;2022-07-25T13:53:56;9.17;;;8.47;;
12603;SDS011;6367;52.508;13.284;2022-07-25T13:56:22;8.57;;;7.97;;
12603;SDS011;6367;52.508;13.284;2022-07-25T13:58:47;8.03;;;7.50;;
12603;SDS011;6367;52.508;13.284;2022-07-25T14:01:13;9.13;;;8.40;;
12603;SDS011;6367;52.508;13.284;2022-07-25T14:03:38;8.37;;;7.67;;
12603;SDS011;6367;52.508;13.284;2022-07-25T14:06:04;8.30;;;7.70;;
12603;SDS011;6367;52.508;13.284;2022-07-25T14:08:32;8.30;;;7.43;;
12603;SDS011;6367;52.508;13.284;2022-07-25T14:10:59;8.70;;;8.20;;
12603;SDS011;6367;52.508;13.284;2022-07-25T14:13:24;8.67;;;7.87;;
12603;SDS011;6367;52.508;13.284;2022-07-25T14:15:50;8.53;;;7.90;;
12603;SDS011;6367;52.508;13.284;2022-07-25T14:18:16;7.87;;;7.27;;
12603;SDS011;6367;52.508;13.284;2022-07-25T14:20:42;8.00;;;7.50;;
12603;SDS011;6367;52.508;13.284;2022-07-25T14:23:08;7.87;;;7.10;;
12603;SDS011;6367;52.508;13.284;2022-07-25T14:25:34;8.47;;;7.53;;
12603;SDS011;6367;52.508;13.284;2022-07-25T14:28:00;8.27;;;7.57;;
12603;SDS011;6367;52.508;13.284;2022-07-25T14:30:26;7.70;;;7.20;;
12603;SDS011;6367;52.508;13.284;2022-07-25T14:32:51;8.03;;;7.53;;
12603;SDS011;6367;52.508;13.284;2022-07-25T14:35:17;7.77;;;7.27;;
12603;SDS011;6367;52.508;13.284;2022-07-25T14:37:44;8.13;;;7.50;;
12603;SDS011;6367;52.508;13.284;2022-07-25T14:40:11;7.77;;;7.27;;
12603;SDS011;6367;52.508;13.284;2022-07-25T14:42:37;7.90;;;7.40;;
12603;SDS011;6367;52.508;13.284;2022-07-25T14:45:04;8.57;;;7.87;;
12603;SDS011;6367;52.508;13.284;2022-07-25T14:47:30;8.33;;;7.73;;
12603;SDS011;6367;52.508;13.284;2022-07-25T14:49:55;7.83;;;7.33;;
12603;SDS011;6367;52.508;13.284;2022-07-25T14:52:21;7.53;;;7.03;;
12603;SDS011;6367;52.508;13.284;2022-07-25T14:54:47;7.80;;;7.20;;
12603;SDS011;6367;52.508;13.284;2022-07-25T14:57:13;8.43;;;7.50;;
12603;SDS011;6367;52.508;13.284;2022-07-25T14:59:38;8.20;;;7.60;;
12603;SDS011;6367;52.508;13.284;2022-07-25T15:02:04;7.53;;;7.03;;
12603;SDS011;6367;52.508;13.284;2022-07-25T15:04:30;8.53;;;7.83;;